Webcam Weerstation Emmen Zuid-West Meer informatie Webcam Weerstation Emmen Zuid-West


Onweer radar Meer informatie blitzortung!


Regen radar  rain snow radar


Lokaal brand risico:
Gebaseerd op waardes van gisteren en vandaag
CBI


Regionaal brand risico: Meer informatie


Lokaal brand risico:
Gebaseerd op actuele waarde
CBI



Het weer levert geen direct gevaar op.    Er zijn geen waarschuwingen afgegeven.

METAR rapporten vliegvelden

   
ETWM - Meppen, Germany
Afstand tot: O 29 km
Gewijzigd: 20-05-2019 20:20
  
  
   Wind: NW 13 km/h
Wind: NW 13 km/h
Temperatuur: 15°C
Dauwpunt: 13°C
Vochtigheid: 88%
Barometer: 1007 hPa
Zicht: 8 km
ETWM 201820Z AUTO 32007KT 8000 // ////// 15/13 Q1007 ///
EHGG - Groningen/Eelde, Netherlands
Afstand tot: NNW 47 km
Gewijzigd: 20-05-2019 20:55
Bewolking  
Bewolking  
   Wind: NNW 16.7 km/h
Wind: NNW 16.7 km/h
Temperatuur: 13°C
Dauwpunt: 12°C
Vochtigheid: 94%
Barometer: 1008 hPa
Bewolking: Bewolking
Zicht: meer dan 10 km
Bewolking: Grotendeels bewolkt 600 ft,
Bewolking 700 ft
EHGG 201855Z AUTO 33009KT 9999 BKN006 OVC007 13/12 Q1008 TEMPO 5000 BR BKN004
EDDG - Muenster/Osnabru, Germany
Afstand tot: ZO 87 km
Gewijzigd: 20-05-2019 20:50
Grotendeels bewolkt  
Grotendeels bewolkt  
   Wind: NW 13 km/h
Wind: NW 13 km/h
Temperatuur: 18°C
Dauwpunt: 14°C
Vochtigheid: 78%
Barometer: 1006 hPa
Bewolking: Grotendeels bewolkt
Zicht: meer dan 10 km
Bewolking: Licht bewolkt 1700 ft,
Grotendeels bewolkt 2200 ft
EDDG 201850Z 31007KT 270V340 9999 FEW017 BKN022 18/14 Q1006 NOSIG
EHLW - Leeuwarden Rnlaf, Netherlands
Afstand tot: NW 93 km
Gewijzigd: 20-05-2019 21:05
Nevel, Bewolking  
Nevel, Bewolking  
   Wind: NNW 20.4 km/h
Wind: NNW 20.4 km/h
Temperatuur: 12°C
Dauwpunt: 12°C
Vochtigheid: 100%
Barometer: 1009 hPa
Bewolking: Bewolking
Zicht: 3 km
Bewolking: Bewolking 200 ft
EHLW 201905Z AUTO 33011KT 300V360 2500 BR OVC002 12/12 Q1009 AMB
ETNT - Wittmundhaven(Ga, Germany
Afstand tot: NNO 100 km
Gewijzigd: 20-05-2019 20:20
Nevel, Bewolking  
Nevel, Bewolking  
   Wind: NNW 20.4 km/h
Wind: NNW 20.4 km/h
Temperatuur: 12°C
Dauwpunt: 12°C
Vochtigheid: 100%
Barometer: 1007 hPa
Bewolking: Bewolking
Zicht: 2 km
Bewolking: Bewolking 100 ft
ETNT 201820Z 33011KT 1500 R26////// BR OVC001 12/12 Q1007 RED
ETND - Diepholz (ger-Af, Germany
Afstand tot: O 104 km
Gewijzigd: 20-05-2019 15:20
Verouderd
Grotendeels bewolkt  
Grotendeels bewolkt  
   Wind: Noorden 13 km/h
Wind: Noorden 13 km/h
Temperatuur: 22°C
Dauwpunt: 14°C
Vochtigheid: 61%
Barometer: 1005 hPa
Bewolking: Grotendeels bewolkt
Zicht: 9 km
Bewolking: Grotendeels bewolkt 3000 ft
ETND 201320Z 35007KT 9000 BKN030 22/14 Q1005 BLU
ETNT - Wittmundhaven(Ga, Germany
Afstand tot: NNO 102 km
Gewijzigd: 20-05-2019 20:20
Nevel, Bewolking  
Nevel, Bewolking  
   Wind: NNW 20.4 km/h
Wind: NNW 20.4 km/h
Temperatuur: 12°C
Dauwpunt: 12°C
Vochtigheid: 100%
Barometer: 1007 hPa
Bewolking: Bewolking
Zicht: 2 km
Bewolking: Bewolking 100 ft
ETNT 201820Z 33011KT 1500 R26////// BR OVC001 12/12 Q1007 RED
EHDL - Deelen Rnlafb, Netherlands
Afstand tot: ZW 103 km
Gewijzigd: 20-05-2019 20:55
Nevel, Bewolking  
Nevel, Bewolking  
   Wind: NW 14.8 km/h
Wind: NW 14.8 km/h
Temperatuur: 14°C
Dauwpunt: 12°C
Vochtigheid: 88%
Barometer: 1009 hPa
Bewolking: Bewolking
Zicht: 5 km
Bewolking: Gedeeltelijk bewolkt 600 ft,
Grotendeels bewolkt 700 ft,
Bewolking 800 ft
EHDL 201855Z AUTO 31008KT 270V360 5000 BR SCT006 BKN007 OVC008 14/12 Q1009 YLO
EHMA - Awg-1 Sea, Netherlands
Afstand tot: NW 105 km
Gewijzigd: 20-05-2019 20:55
Mist, Bewolking  
Mist, Bewolking  
   Wind: Noorden 22.2 km/h
Wind: Noorden 22.2 km/h
Temperatuur: 12°C
Dauwpunt: 12°C
Vochtigheid: 100%
Barometer: 1009 hPa
Bewolking: Bewolking
Zicht: 0 km
Bewolking: Bewolking
EHMA 201855Z AUTO 35012KT 0200 FG VV000 12/12 Q1009 REDZ W///H///
EDDW - Bremen, Germany
Afstand tot: ONO 135 km
Gewijzigd: 20-05-2019 20:50
Licht bewolkt  
Licht bewolkt  
   Wind: NW 22.2 km/h
Wind: NW 22.2 km/h
Temperatuur: 19°C
Dauwpunt: 15°C
Vochtigheid: 78%
Barometer: 1005 hPa
Bewolking: Licht bewolkt
Zicht: meer dan 10 km
Bewolking: Licht bewolkt 4000 ft
EDDW 201850Z 32012KT 9999 FEW040 19/15 Q1005 NOSIG
EHVL - Vlieland Island, Netherlands
Afstand tot: WNW 138 km
Gewijzigd: 20-05-2019 21:08
Nevel, Bewolking  
Nevel, Bewolking  
   Wind: NNW 29.6 km/h
Wind: NNW 29.6 km/h
Temperatuur: 11°C
Dauwpunt: 11°C
Vochtigheid: 100%
Barometer: 1010 hPa
Bewolking: Bewolking
Zicht: 1 km
Bewolking: Bewolking 100 ft
EHVL 201908Z AUTO 33016KT 1100 BR OVC001 11/11 Q1010 RED
EDLV - Niederrhein, Germany
Afstand tot: ZZW 139 km
Gewijzigd: 20-05-2019 20:50
Grotendeels bewolkt  
Grotendeels bewolkt  
   Wind: WNW 14.8 km/h
Wind: WNW 14.8 km/h
Temperatuur: 15°C
Dauwpunt: 13°C
Vochtigheid: 88%
Barometer: 1009 hPa
Bewolking: Grotendeels bewolkt
Zicht: 9 km
Bewolking: Grotendeels bewolkt 2000 ft
EDLV 201850Z 30008KT 270V330 9000 BKN020 15/13 Q1009
EHKD - De Kooy (navy), Netherlands
Afstand tot: W 144 km
Gewijzigd: 20-05-2019 21:02
Mist, Bewolking  
Mist, Bewolking  
   Wind: NW 24.1 km/h
Wind: NW 24.1 km/h
Temperatuur: 11°C
Dauwpunt: 11°C
Vochtigheid: 100%
Barometer: 1010 hPa
Bewolking: Bewolking
Zicht: 1 km
Bewolking: Bewolking 100 ft
EHKD 201902Z AUTO 31013KT 280V350 0650 FG OVC001 11/11 Q1010 RED
EDLW - Dortmund/Wickede, Germany
Afstand tot: ZZO 150 km
Gewijzigd: 20-05-2019 20:50
Bewolking  
Bewolking  
   Wind: Westen 9.3 km/h
Wind: Westen 9.3 km/h
Temperatuur: 16°C
Dauwpunt: 13°C
Vochtigheid: 83%
Barometer: 1007 hPa
Bewolking: Bewolking
Zicht: meer dan 10 km
Bewolking: Bewolking 1800 ft
EDLW 201850Z 28005KT 210V360 9999 OVC018 16/13 Q1007
EHVK - Volkel Rnlafb, Netherlands
Afstand tot: ZZW 149 km
Gewijzigd: 20-05-2019 20:55
Nevel, Bewolking  
Nevel, Bewolking  
   Wind: Westen 13 km/h
Wind: Westen 13 km/h
Temperatuur: 14°C
Dauwpunt: 12°C
Vochtigheid: 88%
Barometer: 1009 hPa
Bewolking: Bewolking
Zicht: 7 km
Bewolking: Grotendeels bewolkt 800 ft,
Bewolking 1000 ft
EHVK 201855Z AUTO 28007KT 240V320 7000 BR BKN008 OVC010 14/12 Q1009 GRN
EDLW - Dortmund/Wickede, Germany
Afstand tot: ZZO 150 km
Gewijzigd: 20-05-2019 20:50
Bewolking  
Bewolking  
   Wind: Westen 9.3 km/h
Wind: Westen 9.3 km/h
Temperatuur: 16°C
Dauwpunt: 13°C
Vochtigheid: 83%
Barometer: 1007 hPa
Bewolking: Bewolking
Zicht: meer dan 10 km
Bewolking: Bewolking 1800 ft
EDLW 201850Z 28005KT 210V360 9999 OVC018 16/13 Q1007
EHMG - L9-Ff-1 Sea, Netherlands
Afstand tot: NW 155 km
Gewijzigd: 20-05-2019 20:55
Grotendeels bewolkt  
Grotendeels bewolkt  
   Wind: NNW 35.2 km/h
Wind: NNW 35.2 km/h
Temperatuur: 11°C
Dauwpunt: 11°C
Vochtigheid: 100%
Barometer: 1010 hPa
Bewolking: Grotendeels bewolkt
Zicht: 8 km
Bewolking: Grotendeels bewolkt 100 ft
EHMG 201855Z AUTO 33019KT 8000 BKN001 11/11 Q1010 W///H///
ETHB - Buckeburg(Ger-Ar, Germany
Afstand tot: OZO 161 km
Gewijzigd: 20-05-2019 20:49
Onweer, Regen, Grotendeels bewolkt  
Onweer, Regen, Grotendeels bewolkt  
   Wind: NNW 20.4 km/h
Wind: NNW 20.4 km/h
Temperatuur: 19°C
Dauwpunt: 16°C
Vochtigheid: 83%
Barometer: 1004 hPa
Bewolking: Grotendeels bewolkt
Zicht: meer dan 10 km
Bewolking: Gedeeltelijk bewolkt 2300 ft,
Grotendeels bewolkt 3400 ft,
Grotendeels bewolkt 11000 ft
ETHB 201849Z 33011KT 9999 TSRA SCT023CB BKN034 BKN110 19/16 Q1004 BLU BLU TEMPO YLO
ETMN - Nordholz (ger-Na, Germany
Afstand tot: NO 164 km
Gewijzigd: 20-05-2019 20:52
Grotendeels bewolkt  
Grotendeels bewolkt  
   Wind: Noorden 18.5 km/h
Wind: Noorden 18.5 km/h
Temperatuur: 16°C
Dauwpunt: 13°C
Vochtigheid: 83%
Barometer: 1006 hPa
Bewolking: Grotendeels bewolkt
Zicht: meer dan 10 km
Bewolking: Licht bewolkt 2000 ft,
Grotendeels bewolkt 22000 ft
ETMN 201852Z 35010KT 9999 FEW020 BKN220 16/13 Q1006 BLU+FCST CANCEL
EDDL - Duesseldorf, Germany
Afstand tot: Z 165 km
Gewijzigd: 20-05-2019 20:50
Bewolking  
Bewolking  
   Wind: WNW 14.8 km/h
Wind: WNW 14.8 km/h
Temperatuur: 15°C
Dauwpunt: 12°C
Vochtigheid: 82%
Barometer: 1008 hPa
Bewolking: Bewolking
Zicht: meer dan 10 km
Bewolking: Bewolking 1700 ft
EDDL 201850Z 29008KT 260V320 9999 OVC017 15/12 Q1008 NOSIG
EDLN - Monchengladbach, Germany
Afstand tot: Z 174 km
Gewijzigd: 20-05-2019 20:50
Bewolking  
Bewolking  
   Wind: WNW 14.8 km/h
Wind: WNW 14.8 km/h
Temperatuur: 15°C
Dauwpunt: 12°C
Vochtigheid: 82%
Barometer: 1009 hPa
Bewolking: Bewolking
Zicht: meer dan 10 km
Bewolking: Bewolking 1500 ft
EDLN 201850Z AUTO 29008KT 9999 // OVC015/// 15/12 Q1009

Script ontwikkeld door  Saratoga-weather.org Aangepast voor de template door  Weerstation Leuven

U vindt ons ook hier:

Het Weer Aktueel

UK Metoffice

European Weather Network

WeatherCloud

Weather Underground

Benelux Weer Netwerk

AWEKAS

Citizen Weather Observer Program (CWOP)

HAMweather, WeatherForYou, PWS Weather

Wetterpage 24

Apparatuur in gebruik:

Weerstation
Davis VP2

Weerprogramma
Meteohub

Hardware
RaspberryPI, Wireless Weather Envoy, MeteoStick, TP-Link MR3020

Leverancier
Weerhuisje.nl weerstations

Davis VP2

Meteohub

RaspberryPI, Wireless Weather Envoy, MeteoStick, TP-Link MR3020

Weerhuisje.nl weerstations